createdAt,value
2023-05-10T00:00:47.425Z,13.19
2023-05-10T00:03:14.540Z,13.22
2023-05-10T00:05:41.795Z,13.21
2023-05-10T00:08:09.163Z,13.21
2023-05-10T00:10:37.254Z,13.18
2023-05-10T00:13:04.551Z,13.19
2023-05-10T00:15:31.727Z,13.18
2023-05-10T00:17:58.661Z,13.18
2023-05-10T00:20:25.784Z,13.21
2023-05-10T00:22:52.682Z,13.22
2023-05-10T00:25:19.503Z,13.23
2023-05-10T00:27:46.381Z,13.24
2023-05-10T00:30:13.519Z,13.24
2023-05-10T00:32:40.639Z,13.25
2023-05-10T00:35:08.086Z,13.21
2023-05-10T00:37:34.956Z,13.23
2023-05-10T00:40:01.908Z,13.19
2023-05-10T00:42:29.776Z,13.19
2023-05-10T00:44:57.400Z,13.19
2023-05-10T00:47:24.880Z,13.23
2023-05-10T00:49:53.000Z,13.25
2023-05-10T00:52:20.332Z,13.19
2023-05-10T00:54:48.701Z,13.21
2023-05-10T00:57:15.978Z,13.21
2023-05-10T00:59:43.120Z,13.15
2023-05-10T01:02:10.174Z,13.21
2023-05-10T01:04:37.496Z,13.14
2023-05-10T01:07:04.524Z,13.20
2023-05-10T01:09:31.893Z,13.18
2023-05-10T01:11:59.438Z,13.21
2023-05-10T01:14:27.650Z,13.19
2023-05-10T01:16:55.117Z,13.11
2023-05-10T01:19:27.158Z,13.09
2023-05-10T01:22:33.970Z,13.09
2023-05-10T01:25:00.847Z,13.02
2023-05-10T01:27:56.089Z,13.04
2023-05-10T01:30:26.130Z,13.06
2023-05-10T01:33:15.724Z,13.05
2023-05-10T01:36:14.677Z,13.08
2023-05-10T01:38:48.416Z,12.93
2023-05-10T01:41:29.566Z,12.84
2023-05-10T01:43:56.422Z,12.80
2023-05-10T01:46:29.816Z,12.81
2023-05-10T01:49:00.416Z,12.86
2023-05-10T01:51:38.213Z,12.84
2023-05-10T01:54:07.103Z,12.85
2023-05-10T01:56:38.879Z,12.88
2023-05-10T01:59:09.986Z,12.94
2023-05-10T02:01:39.077Z,12.92
2023-05-10T02:04:10.013Z,12.93
2023-05-10T02:06:39.191Z,12.93
2023-05-10T02:09:07.703Z,12.98
2023-05-10T02:11:35.002Z,13.02
2023-05-10T02:14:02.966Z,13.03
2023-05-10T02:16:32.070Z,13.03
2023-05-10T02:19:02.273Z,13.01
2023-05-10T02:21:30.725Z,13.05
2023-05-10T02:23:59.047Z,13.05
2023-05-10T02:26:27.928Z,13.10
2023-05-10T02:28:56.162Z,13.14
2023-05-10T02:31:24.080Z,13.12
2023-05-10T02:33:52.426Z,13.11
2023-05-10T02:36:21.236Z,13.09
2023-05-10T02:38:50.026Z,13.04
2023-05-10T02:41:17.880Z,13.05
2023-05-10T02:43:45.615Z,12.98
2023-05-10T02:46:12.539Z,12.98
2023-05-10T02:48:39.709Z,12.97
2023-05-10T02:51:08.495Z,12.89
2023-05-10T02:53:39.434Z,12.93
2023-05-10T02:56:14.816Z,12.91
2023-05-10T02:58:41.770Z,12.90
2023-05-10T03:01:09.011Z,12.90
2023-05-10T03:03:36.179Z,12.91
2023-05-10T03:06:03.466Z,12.95
2023-05-10T03:08:30.909Z,12.94
2023-05-10T03:11:15.572Z,12.92
2023-05-10T03:13:47.330Z,12.91
2023-05-10T03:16:21.617Z,12.84
2023-05-10T03:19:12.117Z,12.83
2023-05-10T03:21:43.333Z,12.89
2023-05-10T03:24:13.414Z,12.86
2023-05-10T03:26:41.896Z,12.88
2023-05-10T03:29:15.972Z,12.88
2023-05-10T03:31:43.326Z,12.95
2023-05-10T03:34:10.452Z,12.87
2023-05-10T03:36:37.476Z,12.78
2023-05-10T03:39:04.818Z,12.76
2023-05-10T03:41:32.006Z,12.78
2023-05-10T03:43:58.909Z,12.79
2023-05-10T03:46:25.832Z,12.80
2023-05-10T03:48:53.330Z,12.81
2023-05-10T03:51:20.753Z,12.79
2023-05-10T03:53:47.929Z,12.84
2023-05-10T03:56:14.916Z,12.84
2023-05-10T03:58:41.903Z,12.87
2023-05-10T04:01:08.780Z,12.88
2023-05-10T04:03:37.459Z,12.87
2023-05-10T04:06:06.466Z,12.83
2023-05-10T04:08:33.532Z,12.79
2023-05-10T04:11:08.663Z,12.82
2023-05-10T04:13:35.978Z,12.80
2023-05-10T04:16:03.353Z,12.81
2023-05-10T04:18:30.355Z,12.87
2023-05-10T04:20:57.302Z,12.90
2023-05-10T04:23:24.310Z,12.86
2023-05-10T04:25:51.246Z,12.92
2023-05-10T04:28:18.102Z,12.92
2023-05-10T04:30:45.015Z,12.89
2023-05-10T04:33:12.033Z,12.87
2023-05-10T04:35:39.881Z,12.81
2023-05-10T04:38:06.700Z,12.73
2023-05-10T04:40:33.776Z,12.71
2023-05-10T04:43:00.722Z,12.74
2023-05-10T04:45:27.601Z,12.74
2023-05-10T04:47:54.556Z,12.73
2023-05-10T04:50:21.464Z,12.68
2023-05-10T04:52:48.325Z,12.71
2023-05-10T04:55:15.376Z,12.70
2023-05-10T04:57:42.190Z,12.67
2023-05-10T05:00:09.626Z,12.67
2023-05-10T05:02:36.713Z,12.74
2023-05-10T05:05:03.800Z,12.71
2023-05-10T05:07:32.241Z,12.70
2023-05-10T05:09:59.362Z,12.73
2023-05-10T05:12:26.206Z,12.78
2023-05-10T05:14:53.428Z,12.74
2023-05-10T05:17:20.636Z,12.74
2023-05-10T05:19:47.800Z,12.77
2023-05-10T05:22:16.193Z,12.77
2023-05-10T05:24:46.756Z,12.83
2023-05-10T05:27:13.622Z,12.80
2023-05-10T05:29:40.636Z,12.82
2023-05-10T05:32:09.577Z,12.82
2023-05-10T05:34:36.713Z,12.80
2023-05-10T05:37:03.681Z,12.80
2023-05-10T05:39:30.676Z,12.86
2023-05-10T05:41:57.505Z,12.87
2023-05-10T05:44:24.322Z,12.83
2023-05-10T05:46:51.292Z,12.85
2023-05-10T05:49:18.129Z,12.94
2023-05-10T05:51:45.546Z,12.93
2023-05-10T05:54:12.836Z,12.94
2023-05-10T05:56:39.877Z,12.91
2023-05-10T05:59:07.010Z,12.91
2023-05-10T06:01:34.140Z,12.89
2023-05-10T06:04:01.140Z,12.91
2023-05-10T06:06:28.958Z,12.93
2023-05-10T06:08:56.121Z,12.95
2023-05-10T06:11:22.984Z,13.03
2023-05-10T06:13:51.327Z,13.07
2023-05-10T06:16:18.873Z,13.14
2023-05-10T06:18:45.859Z,13.21
2023-05-10T06:21:12.693Z,13.22
2023-05-10T06:23:39.637Z,13.31
2023-05-10T06:26:06.473Z,13.35
2023-05-10T06:28:34.572Z,13.45
2023-05-10T06:31:01.927Z,13.49
2023-05-10T06:33:28.844Z,13.41
2023-05-10T06:35:56.223Z,13.29
2023-05-10T06:38:23.975Z,13.27
2023-05-10T06:40:51.328Z,13.41
2023-05-10T06:43:18.555Z,13.49
2023-05-10T06:45:45.432Z,13.58
2023-05-10T06:48:12.269Z,13.74
2023-05-10T06:50:39.155Z,13.89
2023-05-10T06:53:06.145Z,13.88
2023-05-10T06:55:33.332Z,13.76
2023-05-10T06:58:00.254Z,13.67
2023-05-10T07:00:27.222Z,13.63
2023-05-10T07:02:54.092Z,13.60
2023-05-10T07:05:21.613Z,13.57
2023-05-10T07:07:49.517Z,13.62
2023-05-10T07:10:16.383Z,13.70
2023-05-10T07:12:43.355Z,13.66
2023-05-10T07:15:11.717Z,13.63
2023-05-10T07:17:39.587Z,13.70
2023-05-10T07:20:07.633Z,13.75
2023-05-10T07:22:34.688Z,13.89
2023-05-10T07:25:01.920Z,13.94
2023-05-10T07:27:28.838Z,14.02
2023-05-10T07:29:56.196Z,14.06
2023-05-10T07:32:23.269Z,13.98
2023-05-10T07:34:50.251Z,13.91
2023-05-10T07:37:17.281Z,13.91
2023-05-10T07:39:44.959Z,14.05
2023-05-10T07:42:11.835Z,14.00
2023-05-10T07:44:38.647Z,13.98
2023-05-10T07:47:05.510Z,14.09
2023-05-10T07:49:32.559Z,14.19
2023-05-10T07:52:00.044Z,14.22
2023-05-10T07:54:27.386Z,14.23
2023-05-10T07:56:54.205Z,14.12
2023-05-10T07:59:21.232Z,14.20
2023-05-10T08:01:48.072Z,14.21
2023-05-10T08:04:14.964Z,14.11
2023-05-10T08:06:42.628Z,14.10
2023-05-10T08:09:10.530Z,14.37
2023-05-10T08:11:37.493Z,14.47
2023-05-10T08:14:04.488Z,14.56
2023-05-10T08:16:31.624Z,14.69
2023-05-10T08:18:58.673Z,14.71
2023-05-10T08:21:25.595Z,14.71
2023-05-10T08:23:52.451Z,14.70
2023-05-10T08:26:19.464Z,14.76
2023-05-10T08:28:48.036Z,14.83
2023-05-10T08:31:16.972Z,14.88
2023-05-10T08:33:44.532Z,14.82
2023-05-10T08:36:11.954Z,14.88
2023-05-10T08:38:39.071Z,14.77
2023-05-10T08:41:07.184Z,14.75
2023-05-10T08:43:36.950Z,14.95
2023-05-10T08:46:06.345Z,15.10
2023-05-10T08:48:35.538Z,15.14
2023-05-10T08:51:04.922Z,15.35
2023-05-10T08:53:37.335Z,15.43
2023-05-10T08:56:04.916Z,15.47
2023-05-10T08:58:32.399Z,15.54
2023-05-10T09:01:00.819Z,15.84
2023-05-10T09:03:27.780Z,16.11
2023-05-10T09:05:57.111Z,16.48
2023-05-10T09:08:27.879Z,16.94
2023-05-10T09:10:55.972Z,16.76
2023-05-10T09:13:24.282Z,16.28
2023-05-10T09:15:52.518Z,16.04
2023-05-10T09:18:19.630Z,15.94
2023-05-10T09:20:46.815Z,15.84
2023-05-10T09:23:13.704Z,16.11
2023-05-10T09:25:42.827Z,16.04
2023-05-10T09:28:10.855Z,16.12
2023-05-10T09:30:37.939Z,16.19
2023-05-10T09:33:05.062Z,16.13
2023-05-10T09:35:34.045Z,16.10
2023-05-10T09:38:03.490Z,15.89
2023-05-10T09:40:31.348Z,15.85
2023-05-10T09:43:07.993Z,16.07
2023-05-10T09:45:38.853Z,16.19
2023-05-10T09:48:07.103Z,16.18
2023-05-10T09:50:35.398Z,16.34
2023-05-10T09:53:04.869Z,16.29
2023-05-10T09:55:47.170Z,16.38
2023-05-10T09:58:15.651Z,16.05
2023-05-10T10:00:44.735Z,15.77
2023-05-10T10:03:31.468Z,15.75
2023-05-10T10:05:58.952Z,15.74
2023-05-10T10:08:28.006Z,15.83
2023-05-10T10:10:55.158Z,15.82
2023-05-10T10:13:22.186Z,15.95
2023-05-10T10:15:52.249Z,15.89
2023-05-10T10:18:24.587Z,15.90
2023-05-10T10:20:51.803Z,16.12
2023-05-10T10:23:18.654Z,16.44
2023-05-10T10:25:49.939Z,16.33
2023-05-10T10:28:48.398Z,16.48
2023-05-10T10:31:32.730Z,16.83
2023-05-10T10:34:05.062Z,16.89
2023-05-10T10:36:34.261Z,16.76
2023-05-10T10:39:03.859Z,16.86
2023-05-10T10:41:36.100Z,16.79
2023-05-10T10:44:31.798Z,16.97
2023-05-10T10:47:10.248Z,17.34
2023-05-10T10:49:43.044Z,17.50
2023-05-10T10:52:17.318Z,17.45
2023-05-10T10:55:01.697Z,17.19
2023-05-10T10:57:31.457Z,17.06
2023-05-10T11:00:20.970Z,17.18
2023-05-10T11:02:50.446Z,17.36
2023-05-10T11:05:39.258Z,17.54
2023-05-10T11:08:12.110Z,17.68
2023-05-10T11:10:40.162Z,17.56
2023-05-10T11:13:10.061Z,17.51
2023-05-10T11:15:39.238Z,17.48
2023-05-10T11:18:22.586Z,17.71
2023-05-10T11:20:53.970Z,18.30
2023-05-10T11:23:22.144Z,18.50
2023-05-10T11:25:50.498Z,18.34
2023-05-10T11:28:20.855Z,18.18
2023-05-10T11:30:48.315Z,17.95
2023-05-10T11:33:20.731Z,17.95
2023-05-10T11:35:47.870Z,18.29
2023-05-10T11:38:15.874Z,18.25
2023-05-10T11:40:43.044Z,18.13
2023-05-10T11:43:11.688Z,18.11
2023-05-10T11:45:38.960Z,17.90
2023-05-10T11:48:06.182Z,18.08
2023-05-10T11:50:33.892Z,18.08
2023-05-10T11:53:01.213Z,17.80
2023-05-10T11:55:28.483Z,17.41
2023-05-10T11:57:56.106Z,17.53
2023-05-10T12:00:23.057Z,17.89
2023-05-10T12:02:50.251Z,18.03
2023-05-10T12:05:18.428Z,18.09
2023-05-10T12:07:45.723Z,18.23
2023-05-10T12:10:18.965Z,18.11
2023-05-10T12:12:50.717Z,18.06
2023-05-10T12:15:22.975Z,17.80
2023-05-10T12:17:50.877Z,17.85
2023-05-10T12:20:22.875Z,17.73
2023-05-10T12:22:59.673Z,17.47
2023-05-10T12:25:31.938Z,17.16
2023-05-10T12:28:01.953Z,17.11
2023-05-10T12:30:30.345Z,17.01
2023-05-10T12:33:11.701Z,17.22
2023-05-10T12:35:52.918Z,17.44
2023-05-10T12:38:51.090Z,17.51
2023-05-10T12:41:19.236Z,17.71
2023-05-10T12:43:47.660Z,17.96
2023-05-10T12:46:16.753Z,18.31
2023-05-10T12:48:45.133Z,18.49
2023-05-10T12:51:14.098Z,18.62
2023-05-10T12:53:44.229Z,18.88
2023-05-10T12:56:12.412Z,19.10
2023-05-10T12:58:39.633Z,19.05
2023-05-10T13:01:06.999Z,18.89
2023-05-10T13:03:33.944Z,19.27
2023-05-10T13:06:01.115Z,19.38
2023-05-10T13:08:30.739Z,19.59
2023-05-10T13:10:57.602Z,20.01
2023-05-10T13:13:24.608Z,19.87
2023-05-10T13:15:51.499Z,19.49
2023-05-10T13:18:18.819Z,19.64
2023-05-10T13:20:45.847Z,19.76
2023-05-10T13:23:12.755Z,19.13
2023-05-10T13:25:40.264Z,19.06
2023-05-10T13:28:07.226Z,18.98
2023-05-10T13:30:34.125Z,18.60
2023-05-10T13:33:01.860Z,18.41
2023-05-10T13:35:29.019Z,18.45
2023-05-10T13:37:58.738Z,18.45
2023-05-10T13:40:25.802Z,18.64
2023-05-10T13:42:53.801Z,18.45
2023-05-10T13:45:20.734Z,18.42
2023-05-10T13:47:48.148Z,18.73
2023-05-10T13:50:15.025Z,18.94
2023-05-10T13:52:41.957Z,18.87
2023-05-10T13:55:09.294Z,19.08
2023-05-10T13:57:37.032Z,18.99
2023-05-10T14:00:04.325Z,19.27
2023-05-10T14:02:35.098Z,19.26
2023-05-10T14:05:02.668Z,19.01
2023-05-10T14:07:29.584Z,18.88
2023-05-10T14:09:56.511Z,19.10
2023-05-10T14:12:23.428Z,18.90
2023-05-10T14:14:50.315Z,18.90
2023-05-10T14:17:17.314Z,18.98
2023-05-10T14:19:44.319Z,18.67
2023-05-10T14:22:11.285Z,18.70
2023-05-10T14:24:39.584Z,18.86
2023-05-10T14:27:07.073Z,19.09
2023-05-10T14:29:34.157Z,18.96
2023-05-10T14:32:01.185Z,18.48
2023-05-10T14:34:28.445Z,18.17
2023-05-10T14:36:55.296Z,18.03
2023-05-10T14:39:22.459Z,17.73
2023-05-10T14:41:49.688Z,17.78
2023-05-10T14:44:16.690Z,17.77
2023-05-10T14:46:43.730Z,17.99
2023-05-10T14:49:10.678Z,18.18
2023-05-10T14:51:37.960Z,18.38
2023-05-10T14:54:04.980Z,18.09
2023-05-10T14:56:32.841Z,17.70
2023-05-10T14:59:00.479Z,17.75
2023-05-10T15:01:28.025Z,17.70
2023-05-10T15:03:55.948Z,17.77
2023-05-10T15:06:33.203Z,17.96
2023-05-10T15:09:00.774Z,18.24
2023-05-10T15:11:27.849Z,18.43
2023-05-10T15:13:54.755Z,18.50
2023-05-10T15:16:22.409Z,18.43
2023-05-10T15:18:49.697Z,18.10
2023-05-10T15:21:16.683Z,17.87
2023-05-10T15:23:43.894Z,17.59
2023-05-10T15:26:10.768Z,17.51
2023-05-10T15:28:37.763Z,17.21
2023-05-10T15:31:04.878Z,16.94
2023-05-10T15:33:31.902Z,16.75
2023-05-10T15:35:58.827Z,16.83
2023-05-10T15:38:25.656Z,17.01
2023-05-10T15:40:57.681Z,17.09
2023-05-10T15:43:24.678Z,17.12
2023-05-10T15:45:51.624Z,17.39
2023-05-10T15:48:18.547Z,17.59
2023-05-10T15:50:46.253Z,17.72
2023-05-10T15:53:13.341Z,17.72
2023-05-10T15:55:40.275Z,17.83
2023-05-10T15:58:07.268Z,17.88
2023-05-10T16:00:34.397Z,18.03
2023-05-10T16:03:01.637Z,17.90
2023-05-10T16:05:32.406Z,17.83
2023-05-10T16:08:00.484Z,18.13
2023-05-10T16:10:28.195Z,18.08
2023-05-10T16:12:55.718Z,18.31
2023-05-10T16:15:22.791Z,18.40
2023-05-10T16:17:49.877Z,18.64
2023-05-10T16:20:16.961Z,18.69
2023-05-10T16:22:44.598Z,18.20
2023-05-10T16:25:13.365Z,18.00
2023-05-10T16:27:40.919Z,18.20
2023-05-10T16:30:08.662Z,18.88
2023-05-10T16:32:35.652Z,19.33
2023-05-10T16:35:03.271Z,19.52
2023-05-10T16:37:30.359Z,19.33
2023-05-10T16:39:57.220Z,19.02
2023-05-10T16:42:25.268Z,18.51
2023-05-10T16:44:52.593Z,17.73
2023-05-10T16:47:19.630Z,17.65
2023-05-10T16:49:46.741Z,18.41
2023-05-10T16:52:14.049Z,18.53
2023-05-10T16:54:40.904Z,18.80
2023-05-10T16:57:08.679Z,18.30
2023-05-10T16:59:35.752Z,18.37
2023-05-10T17:02:03.327Z,18.62
2023-05-10T17:04:30.318Z,18.51
2023-05-10T17:06:57.716Z,18.30
2023-05-10T17:09:24.606Z,18.15
2023-05-10T17:11:51.754Z,17.66
2023-05-10T17:14:18.696Z,17.52
2023-05-10T17:16:45.599Z,17.49
2023-05-10T17:19:12.523Z,17.41
2023-05-10T17:21:39.409Z,17.17
2023-05-10T17:24:06.643Z,16.61
2023-05-10T17:26:34.787Z,16.49
2023-05-10T17:29:01.853Z,16.45
2023-05-10T17:31:28.808Z,16.10
2023-05-10T17:33:56.475Z,15.95
2023-05-10T17:36:23.524Z,15.83
2023-05-10T17:38:50.636Z,15.88
2023-05-10T17:41:17.556Z,15.87
2023-05-10T17:43:44.799Z,15.88
2023-05-10T17:46:12.954Z,15.84
2023-05-10T17:48:39.963Z,15.75
2023-05-10T17:51:07.077Z,15.77
2023-05-10T17:53:35.284Z,15.75
2023-05-10T17:56:02.543Z,15.55
2023-05-10T17:58:29.566Z,15.32
2023-05-10T18:00:57.649Z,15.16
2023-05-10T18:03:24.739Z,15.07
2023-05-10T18:05:52.114Z,15.04
2023-05-10T18:08:22.820Z,15.04
2023-05-10T18:10:49.868Z,15.10
2023-05-10T18:13:17.063Z,15.02
2023-05-10T18:15:44.489Z,14.84
2023-05-10T18:18:11.517Z,14.63
2023-05-10T18:20:38.485Z,14.45
2023-05-10T18:23:06.403Z,14.22
2023-05-10T18:25:33.304Z,14.33
2023-05-10T18:28:00.605Z,14.26
2023-05-10T18:30:27.723Z,14.36
2023-05-10T18:32:55.275Z,14.23
2023-05-10T18:35:22.599Z,14.16
2023-05-10T18:37:49.819Z,14.08
2023-05-10T18:40:17.550Z,13.96
2023-05-10T18:42:46.739Z,13.87
2023-05-10T18:45:14.012Z,13.97
2023-05-10T18:47:40.919Z,14.00
2023-05-10T18:50:08.378Z,13.93
2023-05-10T18:52:36.923Z,13.81
2023-05-10T18:55:04.363Z,13.87
2023-05-10T18:57:31.704Z,13.71
2023-05-10T18:59:58.752Z,13.68
2023-05-10T19:02:26.784Z,13.57
2023-05-10T19:04:53.973Z,13.59
2023-05-10T19:07:21.270Z,13.47
2023-05-10T19:09:48.218Z,13.51
2023-05-10T19:12:15.133Z,13.42
2023-05-10T19:14:42.076Z,13.27
2023-05-10T19:17:09.449Z,13.20
2023-05-10T19:19:37.974Z,13.00
2023-05-10T19:22:05.195Z,13.10
2023-05-10T19:24:35.456Z,13.19
2023-05-10T19:27:03.082Z,13.06
2023-05-10T19:29:30.185Z,12.95
2023-05-10T19:31:57.529Z,12.95
2023-05-10T19:34:25.010Z,12.94
2023-05-10T19:36:51.990Z,12.83
2023-05-10T19:39:19.610Z,12.82
2023-05-10T19:41:47.822Z,12.73
2023-05-10T19:44:15.196Z,12.72
2023-05-10T19:46:42.071Z,12.76
2023-05-10T19:49:08.935Z,12.74
2023-05-10T19:51:35.858Z,12.72
2023-05-10T19:54:03.060Z,12.78
2023-05-10T19:56:30.176Z,12.77
2023-05-10T19:58:57.085Z,12.62
2023-05-10T20:01:23.953Z,12.66
2023-05-10T20:03:51.206Z,12.74
2023-05-10T20:06:18.165Z,12.78
2023-05-10T20:08:45.682Z,12.78
2023-05-10T20:11:13.174Z,12.71
2023-05-10T20:13:39.999Z,12.72
2023-05-10T20:16:07.343Z,12.79
2023-05-10T20:18:34.348Z,12.74
2023-05-10T20:21:01.600Z,12.73
2023-05-10T20:23:28.535Z,12.61
2023-05-10T20:25:55.828Z,12.55
2023-05-10T20:28:24.116Z,12.57
2023-05-10T20:30:53.294Z,12.57
2023-05-10T20:33:21.125Z,12.59
2023-05-10T20:35:48.451Z,12.59
2023-05-10T20:38:15.557Z,12.47
2023-05-10T20:40:42.605Z,12.30
2023-05-10T20:43:09.650Z,12.14
2023-05-10T20:45:37.958Z,12.03
2023-05-10T20:48:05.420Z,11.97
2023-05-10T20:50:32.784Z,12.06
2023-05-10T20:53:00.646Z,12.09
2023-05-10T20:55:28.563Z,12.10
2023-05-10T20:57:55.618Z,12.13
2023-05-10T21:00:22.627Z,12.17
2023-05-10T21:02:49.786Z,12.05
2023-05-10T21:05:19.762Z,12.05
2023-05-10T21:07:46.952Z,12.10
2023-05-10T21:10:13.928Z,12.20
2023-05-10T21:12:40.973Z,12.19
2023-05-10T21:15:08.649Z,12.18
2023-05-10T21:17:35.779Z,12.06
2023-05-10T21:20:03.805Z,11.97
2023-05-10T21:22:30.779Z,11.98
2023-05-10T21:24:57.643Z,11.98
2023-05-10T21:27:24.481Z,12.02
2023-05-10T21:29:52.581Z,12.01
2023-05-10T21:32:19.998Z,11.97
2023-05-10T21:34:47.182Z,11.87
2023-05-10T21:37:16.871Z,11.85
2023-05-10T21:39:44.605Z,11.84
2023-05-10T21:42:11.718Z,11.82
2023-05-10T21:44:38.955Z,11.83
2023-05-10T21:47:05.774Z,11.72
2023-05-10T21:49:33.016Z,11.68
2023-05-10T21:51:59.917Z,11.73
2023-05-10T21:54:27.111Z,11.75
2023-05-10T21:56:54.038Z,11.79
2023-05-10T21:59:21.786Z,11.71
2023-05-10T22:01:49.035Z,11.56
2023-05-10T22:04:15.924Z,11.58
2023-05-10T22:06:42.955Z,11.51
2023-05-10T22:09:11.799Z,11.47
2023-05-10T22:11:38.618Z,11.54
2023-05-10T22:14:06.322Z,11.50
2023-05-10T22:16:33.898Z,11.40
2023-05-10T22:19:00.886Z,11.46
2023-05-10T22:21:28.230Z,11.51
2023-05-10T22:23:55.300Z,11.38
2023-05-10T22:26:22.963Z,11.34
2023-05-10T22:28:50.222Z,11.36
2023-05-10T22:31:17.127Z,11.41
2023-05-10T22:33:44.091Z,11.39
2023-05-10T22:36:10.985Z,11.29
2023-05-10T22:38:37.980Z,11.19
2023-05-10T22:41:04.837Z,11.25
2023-05-10T22:43:31.804Z,11.39
2023-05-10T22:45:58.753Z,11.44
2023-05-10T22:48:25.811Z,11.53
2023-05-10T22:50:52.750Z,11.58
2023-05-10T22:53:19.702Z,11.57
2023-05-10T22:55:47.225Z,11.54
2023-05-10T22:58:14.195Z,11.45
2023-05-10T23:00:41.388Z,11.46
2023-05-10T23:03:08.666Z,11.50
2023-05-10T23:05:36.006Z,11.48
2023-05-10T23:08:03.418Z,11.54
2023-05-10T23:10:30.297Z,11.49
2023-05-10T23:12:57.215Z,11.46
2023-05-10T23:15:24.309Z,11.49
2023-05-10T23:17:51.200Z,11.47
2023-05-10T23:20:18.370Z,11.56
2023-05-10T23:22:45.631Z,11.61
2023-05-10T23:25:12.468Z,11.65
2023-05-10T23:27:40.218Z,11.63
2023-05-10T23:30:07.850Z,11.65
2023-05-10T23:32:34.695Z,11.65
2023-05-10T23:35:02.100Z,11.66
2023-05-10T23:37:29.030Z,11.64
2023-05-10T23:39:56.080Z,11.63
2023-05-10T23:42:23.142Z,11.62
2023-05-10T23:44:52.583Z,11.63
2023-05-10T23:47:19.873Z,11.60
2023-05-10T23:49:46.989Z,11.64
2023-05-10T23:52:14.179Z,11.75
2023-05-10T23:54:41.228Z,11.79
2023-05-10T23:57:08.144Z,11.73
2023-05-10T23:59:35.308Z,11.79
